New Durham, New Hampshire
Current Conditions -  °F | °C
As of 5:55 PM on Thursday 20 Nov 2014 (Local Time) from KLCI Reporting Station
Few Clouds Few Clouds  
Wind Chill: 25°   Ceiling: Unl
Heat Index: 32°   Visibility: 10mi
Dew Point: 14°   Wind: 8mph
Humidity: 47%   Direction: 270°W
Pressure: 29.78"   Gusts: NA
Location:  43.44°N, 71.17°W
Report Text: KLCI 202255Z AUTO 27007KT 10SM FEW090 00/M10 A2978 RMK AO1
Loading
Personal Weather Stations






























Interactive Weather Map New forecast layout! Learn more

10-Day Weather Forecast

Advertisements
Track Severe Weather on mobile